createdAt,value
2023-03-26T00:01:54.790Z,94703.19
2023-03-26T00:04:22.446Z,94701.41
2023-03-26T00:06:50.292Z,94703.03
2023-03-26T00:09:19.835Z,94691.59
2023-03-26T00:11:47.548Z,94690.78
2023-03-26T00:14:17.591Z,94700.25
2023-03-26T00:16:47.827Z,94698.31
2023-03-26T00:19:15.749Z,94698.13
2023-03-26T00:21:43.389Z,94687.69
2023-03-26T00:24:14.893Z,94688.34
2023-03-26T00:26:48.448Z,94703.03
2023-03-26T00:29:16.949Z,94696.19
2023-03-26T00:31:45.970Z,94698.66
2023-03-26T00:36:44.058Z,94689.16
2023-03-26T00:39:11.751Z,94680.50
2023-03-26T00:41:43.067Z,94679.72
2023-03-26T00:44:12.563Z,94683.13
2023-03-26T00:46:40.948Z,94676.94
2023-03-26T00:49:10.813Z,94671.53
2023-03-26T00:51:39.407Z,94667.13
2023-03-26T00:54:08.185Z,94669.75
2023-03-26T00:56:35.970Z,94672.38
2023-03-26T00:59:03.653Z,94660.31
2023-03-26T01:01:32.690Z,94676.75
2023-03-26T01:04:24.046Z,94669.75
2023-03-26T01:06:54.243Z,94654.91
2023-03-26T01:09:24.088Z,94666.19
2023-03-26T01:11:51.754Z,94670.56
2023-03-26T01:14:21.657Z,94671.41
2023-03-26T01:16:53.633Z,94669.59
2023-03-26T01:19:29.293Z,94666.97
2023-03-26T01:21:58.808Z,94677.41
2023-03-26T01:24:28.115Z,94666.97
2023-03-26T01:27:10.193Z,94663.56
2023-03-26T01:29:44.104Z,94671.22
2023-03-26T01:32:27.362Z,94656.53
2023-03-26T01:35:09.161Z,94667.78
2023-03-26T01:37:46.779Z,94659.13
2023-03-26T01:40:23.629Z,94646.25
2023-03-26T01:42:57.314Z,94662.75
2023-03-26T01:45:30.391Z,94647.91
2023-03-26T01:47:58.678Z,94647.91
2023-03-26T01:50:26.554Z,94643.63
2023-03-26T01:52:54.306Z,94643.47
2023-03-26T01:55:26.982Z,94641.84
2023-03-26T01:58:03.981Z,94640.22
2023-03-26T02:00:34.795Z,94634.19
2023-03-26T02:03:17.703Z,94636.63
2023-03-26T02:05:53.639Z,94633.19
2023-03-26T02:08:25.215Z,94624.53
2023-03-26T02:10:58.462Z,94627.16
2023-03-26T02:13:27.162Z,94625.38
2023-03-26T02:16:00.561Z,94616.72
2023-03-26T02:18:36.247Z,94620.16
2023-03-26T02:21:06.267Z,94617.53
2023-03-26T02:23:35.793Z,94612.31
2023-03-26T02:26:07.495Z,94599.44
2023-03-26T02:28:35.654Z,94605.47
2023-03-26T02:31:03.484Z,94610.69
2023-03-26T02:33:31.949Z,94616.72
2023-03-26T02:36:02.065Z,94609.69
2023-03-26T02:38:33.643Z,94604.47
2023-03-26T02:41:01.840Z,94604.47
2023-03-26T02:43:31.377Z,94597.47
2023-03-26T02:45:59.200Z,94592.25
2023-03-26T02:48:27.148Z,94588.63
2023-03-26T02:50:55.638Z,94582.63
2023-03-26T02:53:24.101Z,94583.41
2023-03-26T02:55:52.235Z,94587.66
2023-03-26T02:58:20.099Z,94581.63
2023-03-26T03:00:50.706Z,94577.22
2023-03-26T03:03:18.761Z,94573.78
2023-03-26T03:05:46.367Z,94571.19
2023-03-26T03:08:13.977Z,94558.94
2023-03-26T03:10:42.357Z,94552.91
2023-03-26T03:13:10.232Z,94539.84
2023-03-26T03:15:37.866Z,94541.63
2023-03-26T03:18:07.340Z,94537.22
2023-03-26T03:20:35.735Z,94536.41
2023-03-26T03:23:03.381Z,94528.56
2023-03-26T03:25:30.960Z,94519.13
2023-03-26T03:27:58.809Z,94524.34
2023-03-26T03:30:26.691Z,94512.25
2023-03-26T03:32:54.298Z,94516.53
2023-03-26T03:35:23.250Z,94516.53
2023-03-26T03:37:51.001Z,94518.31
2023-03-26T03:40:19.649Z,94514.88
2023-03-26T03:42:47.778Z,94507.88
2023-03-26T03:45:15.655Z,94513.09
2023-03-26T03:47:43.293Z,94516.53
2023-03-26T03:50:12.063Z,94507.03
2023-03-26T03:52:41.133Z,94512.25
2023-03-26T03:55:10.520Z,94507.03
2023-03-26T03:57:38.248Z,94503.66
2023-03-26T04:00:10.050Z,94508.88
2023-03-26T04:02:37.743Z,94509.66
2023-03-26T04:05:07.352Z,94501.81
2023-03-26T04:07:34.965Z,94490.41
2023-03-26T04:10:05.879Z,94490.41
2023-03-26T04:12:33.594Z,94485.84
2023-03-26T04:15:01.493Z,94480.63
2023-03-26T04:17:30.418Z,94489.09
2023-03-26T04:19:58.296Z,94483.06
2023-03-26T04:22:36.366Z,94472.47
2023-03-26T04:25:05.959Z,94478.47
2023-03-26T04:27:36.800Z,94470.63
2023-03-26T04:30:06.408Z,94463.81
2023-03-26T04:32:34.980Z,94478.31
2023-03-26T04:35:04.385Z,94472.28
2023-03-26T04:37:34.800Z,94470.50
2023-03-26T04:40:06.749Z,94462.66
2023-03-26T04:42:37.589Z,94462.66
2023-03-26T04:45:06.031Z,94459.22
2023-03-26T04:47:36.779Z,94454.81
2023-03-26T04:50:05.331Z,94448.78
2023-03-26T04:52:32.992Z,94447.78
2023-03-26T04:55:01.090Z,94451.38
2023-03-26T04:57:32.635Z,94450.56
2023-03-26T05:00:03.033Z,94436.69
2023-03-26T05:02:32.511Z,94441.78
2023-03-26T05:05:02.769Z,94438.34
2023-03-26T05:07:30.419Z,94431.47
2023-03-26T05:09:58.187Z,94424.47
2023-03-26T05:12:25.882Z,94425.47
2023-03-26T05:14:53.503Z,94413.19
2023-03-26T05:17:24.322Z,94414.84
2023-03-26T05:19:52.564Z,94404.56
2023-03-26T05:22:20.423Z,94414.00
2023-03-26T05:24:48.021Z,94404.56
2023-03-26T05:27:16.814Z,94405.34
2023-03-26T05:29:44.441Z,94403.56
2023-03-26T05:32:12.077Z,94411.41
2023-03-26T05:34:42.061Z,94412.22
2023-03-26T05:37:10.109Z,94403.75
2023-03-26T05:39:37.678Z,94405.34
2023-03-26T05:42:07.726Z,94407.31
2023-03-26T05:44:35.403Z,94406.34
2023-03-26T05:47:03.833Z,94398.53
2023-03-26T05:49:31.465Z,94395.91
2023-03-26T05:52:00.478Z,94386.09
2023-03-26T05:54:28.280Z,94373.22
2023-03-26T05:56:57.014Z,94368.66
2023-03-26T05:59:24.961Z,94377.13
2023-03-26T06:01:54.682Z,94373.69
2023-03-26T06:04:22.650Z,94371.91
2023-03-26T06:06:52.631Z,94356.25
2023-03-26T06:09:21.725Z,94352.63
2023-03-26T06:11:49.436Z,94359.50
2023-03-26T06:14:17.094Z,94359.50
2023-03-26T06:16:44.823Z,94360.31
2023-03-26T06:19:12.472Z,94360.31
2023-03-26T06:21:40.092Z,94357.69
2023-03-26T06:24:08.413Z,94355.88
2023-03-26T06:26:37.383Z,94357.69
2023-03-26T06:29:05.001Z,94351.66
2023-03-26T06:31:32.703Z,94355.09
2023-03-26T06:34:00.302Z,94347.41
2023-03-26T06:36:27.934Z,94347.41
2023-03-26T06:38:55.811Z,94344.78
2023-03-26T06:41:23.411Z,94329.13
2023-03-26T06:43:52.856Z,94338.59
2023-03-26T06:46:21.315Z,94347.41
2023-03-26T06:48:48.955Z,94344.31
2023-03-26T06:51:16.801Z,94337.81
2023-03-26T06:53:44.521Z,94340.75
2023-03-26T06:56:12.266Z,94337.69
2023-03-26T06:58:39.893Z,94343.06
2023-03-26T07:01:09.219Z,94340.63
2023-03-26T07:03:37.003Z,94340.16
2023-03-26T07:06:05.405Z,94342.94
2023-03-26T07:08:33.229Z,94335.28
2023-03-26T07:11:00.912Z,94329.41
2023-03-26T07:13:28.487Z,94323.53
2023-03-26T07:15:56.194Z,94326.34
2023-03-26T07:18:25.196Z,94317.84
2023-03-26T07:20:53.641Z,94312.47
2023-03-26T07:23:22.028Z,94301.03
2023-03-26T07:25:50.317Z,94297.63
2023-03-26T07:28:26.394Z,94287.97
2023-03-26T07:31:04.313Z,94264.47
2023-03-26T07:33:38.672Z,94257.28
2023-03-26T07:36:18.520Z,94252.06
2023-03-26T07:39:00.099Z,94235.44
2023-03-26T07:41:34.528Z,94231.84
2023-03-26T07:44:30.445Z,94230.22
2023-03-26T07:47:01.823Z,94224.34
2023-03-26T07:49:31.485Z,94221.94
2023-03-26T07:51:59.565Z,94218.13
2023-03-26T07:54:27.622Z,94221.38
2023-03-26T07:57:00.939Z,94217.41
2023-03-26T07:59:35.344Z,94206.28
2023-03-26T08:02:21.443Z,94200.03
2023-03-26T08:05:02.282Z,94195.22
2023-03-26T08:07:41.308Z,94196.06
2023-03-26T08:10:17.342Z,94180.94
2023-03-26T08:12:53.815Z,94175.69
2023-03-26T08:15:30.615Z,94165.59
2023-03-26T08:18:04.211Z,94163.88
2023-03-26T08:20:41.507Z,94170.44
2023-03-26T08:23:17.509Z,94169.13
2023-03-26T08:25:59.280Z,94170.25
2023-03-26T08:28:38.805Z,94163.94
2023-03-26T08:31:08.800Z,94156.75
2023-03-26T08:33:38.285Z,94165.06
2023-03-26T08:36:08.634Z,94156.91
2023-03-26T08:38:36.686Z,94155.63
2023-03-26T08:41:37.256Z,94159.38
2023-03-26T08:44:41.727Z,94168.69
2023-03-26T08:47:38.624Z,94174.50
2023-03-26T08:50:33.058Z,94164.63
2023-03-26T08:53:39.896Z,94175.22
2023-03-26T08:56:13.007Z,94164.50
2023-03-26T08:59:20.842Z,94161.19
2023-03-26T09:02:05.997Z,94159.03
2023-03-26T09:04:52.136Z,94155.94
2023-03-26T09:07:45.251Z,94152.38
2023-03-26T09:10:46.467Z,94139.84
2023-03-26T09:13:39.353Z,94133.69
2023-03-26T09:16:51.234Z,94137.63
2023-03-26T09:19:54.096Z,94143.34
2023-03-26T09:22:49.095Z,94123.16
2023-03-26T09:25:41.552Z,94119.91
2023-03-26T09:28:33.800Z,94119.25
2023-03-26T09:31:24.067Z,94106.59
2023-03-26T09:34:02.483Z,94113.25
2023-03-26T09:36:41.998Z,94120.72
2023-03-26T09:39:21.351Z,94127.72
2023-03-26T09:42:03.927Z,94136.16
2023-03-26T09:45:08.976Z,94127.72
2023-03-26T09:48:08.864Z,94124.13
2023-03-26T09:50:44.575Z,94109.81
2023-03-26T09:53:30.161Z,94112.28
2023-03-26T09:56:09.259Z,94110.13
2023-03-26T09:59:03.562Z,94111.25
2023-03-26T10:01:41.537Z,94117.31
2023-03-26T10:04:40.269Z,94093.53
2023-03-26T10:07:22.957Z,94091.28
2023-03-26T10:09:59.762Z,94088.47
2023-03-26T10:12:34.950Z,94072.75
2023-03-26T10:15:16.204Z,94068.38
2023-03-26T10:17:56.066Z,94074.22
2023-03-26T10:20:39.387Z,94075.50
2023-03-26T10:23:25.827Z,94082.19
2023-03-26T10:26:09.509Z,94080.09
2023-03-26T10:28:54.271Z,94080.38
2023-03-26T10:31:38.062Z,94082.19
2023-03-26T10:34:28.434Z,94098.47
2023-03-26T10:37:07.813Z,94108.88
2023-03-26T10:39:53.664Z,94108.19
2023-03-26T10:42:40.739Z,94119.44
2023-03-26T10:45:36.714Z,94116.00
2023-03-26T10:48:21.362Z,94114.41
2023-03-26T10:50:55.105Z,94104.63
2023-03-26T10:53:32.030Z,94096.44
2023-03-26T10:56:03.802Z,94092.59
2023-03-26T10:58:48.330Z,94088.25
2023-03-26T11:01:24.688Z,94070.03
2023-03-26T11:03:55.011Z,94064.88
2023-03-26T11:06:33.839Z,94058.31
2023-03-26T11:09:12.299Z,94064.28
2023-03-26T11:11:46.197Z,94050.53
2023-03-26T11:14:28.231Z,94070.88
2023-03-26T11:17:14.807Z,94071.53
2023-03-26T11:20:06.454Z,94057.31
2023-03-26T11:22:44.562Z,94053.69
2023-03-26T11:25:37.774Z,94063.16
2023-03-26T11:28:17.285Z,94056.16
2023-03-26T11:30:55.314Z,94064.97
2023-03-26T11:33:27.290Z,94063.16
2023-03-26T11:36:07.078Z,94063.16
2023-03-26T11:38:38.828Z,94061.53
2023-03-26T11:41:13.175Z,94050.31
2023-03-26T11:43:41.233Z,94050.47
2023-03-26T11:46:12.940Z,94063.50
2023-03-26T11:48:44.086Z,94061.72
2023-03-26T11:51:18.811Z,94060.75
2023-03-26T11:53:46.821Z,94061.72
2023-03-26T11:56:28.504Z,94059.09
2023-03-26T11:59:00.999Z,94040.03
2023-03-26T12:01:31.071Z,94049.31
2023-03-26T12:04:04.180Z,94031.84
2023-03-26T12:06:34.410Z,94022.03
2023-03-26T12:09:02.040Z,94016.81
2023-03-26T12:11:35.449Z,94022.03
2023-03-26T12:14:06.041Z,94021.22
2023-03-26T12:16:34.067Z,94026.44
2023-03-26T12:19:06.239Z,94014.22
2023-03-26T12:21:46.677Z,94021.22
2023-03-26T12:24:28.369Z,94016.81
2023-03-26T12:27:02.142Z,94021.22
2023-03-26T12:29:34.481Z,94011.59
2023-03-26T12:32:08.329Z,94012.22
2023-03-26T12:34:38.364Z,94010.63
2023-03-26T12:37:09.664Z,94001.16
2023-03-26T12:40:07.747Z,93996.56
2023-03-26T12:44:45.243Z,93995.75
2023-03-26T12:45:22.019Z,93993.78
2023-03-26T12:47:59.339Z,93999.00
2023-03-26T12:50:46.280Z,93986.94
2023-03-26T12:53:40.099Z,93988.56
2023-03-26T12:56:17.453Z,93993.78
2023-03-26T12:59:00.643Z,93985.94
2023-03-26T13:01:43.673Z,93984.97
2023-03-26T13:04:30.090Z,93979.75
2023-03-26T13:07:02.664Z,93986.59
2023-03-26T13:09:50.994Z,93989.22
2023-03-26T13:12:31.952Z,93974.53
2023-03-26T13:15:22.036Z,93970.94
2023-03-26T13:18:04.273Z,93963.09
2023-03-26T13:20:43.369Z,93975.16
2023-03-26T13:23:24.430Z,93970.94
2023-03-26T13:26:01.497Z,93972.53
2023-03-26T13:28:41.776Z,93974.34
2023-03-26T13:31:16.597Z,93985.59
2023-03-26T13:33:55.683Z,93972.53
2023-03-26T13:36:31.684Z,93990.00
2023-03-26T13:39:18.194Z,93985.59
2023-03-26T13:42:03.833Z,93970.94
2023-03-26T13:44:42.798Z,93971.72
2023-03-26T13:47:16.091Z,93971.72
2023-03-26T13:49:49.515Z,93968.16
2023-03-26T13:52:21.894Z,93960.31
2023-03-26T13:54:52.369Z,93956.88
2023-03-26T13:57:25.526Z,93950.69
2023-03-26T13:59:57.475Z,93951.31
2023-03-26T14:02:32.138Z,93948.06
2023-03-26T14:05:04.692Z,93936.63
2023-03-26T14:07:41.613Z,93934.03
2023-03-26T14:10:13.957Z,93933.03
2023-03-26T14:12:51.403Z,93926.00
2023-03-26T14:15:23.376Z,93932.03
2023-03-26T14:17:56.250Z,93923.56
2023-03-26T14:21:01.506Z,93936.44
2023-03-26T14:24:04.900Z,93920.78
2023-03-26T14:26:47.397Z,93917.38
2023-03-26T14:29:56.836Z,93922.59
2023-03-26T14:32:45.893Z,93911.34
2023-03-26T14:35:26.537Z,93901.72
2023-03-26T14:38:16.911Z,93903.50
2023-03-26T14:40:58.224Z,93898.28
2023-03-26T14:44:04.897Z,93901.72
2023-03-26T14:46:50.936Z,93897.28
2023-03-26T14:49:39.342Z,93889.44
2023-03-26T14:52:13.384Z,93893.06
2023-03-26T14:54:45.117Z,93893.88
2023-03-26T14:57:40.742Z,93881.63
2023-03-26T15:00:38.229Z,93895.50
2023-03-26T15:03:40.849Z,93893.88
2023-03-26T15:06:39.802Z,93875.63
2023-03-26T15:09:54.906Z,93876.59
2023-03-26T15:12:38.071Z,93885.22
2023-03-26T15:15:34.424Z,93876.59
2023-03-26T15:18:48.210Z,93869.56
2023-03-26T15:21:44.978Z,93858.31
2023-03-26T15:24:46.611Z,93866.97
2023-03-26T15:27:43.529Z,93861.75
2023-03-26T15:30:36.866Z,93862.56
2023-03-26T15:33:27.559Z,93865.97
2023-03-26T15:36:13.902Z,93861.56
2023-03-26T15:39:32.415Z,93845.06
2023-03-26T15:42:14.104Z,93878.03
2023-03-26T15:44:54.523Z,93868.41
2023-03-26T15:48:03.951Z,93882.28
2023-03-26T15:50:43.096Z,93877.06
2023-03-26T15:53:23.408Z,93911.00
2023-03-26T15:56:04.164Z,93913.59
2023-03-26T15:58:38.408Z,93919.59
2023-03-26T16:01:19.032Z,93908.19
2023-03-26T16:03:55.292Z,93879.47
2023-03-26T16:06:41.581Z,93896.94
2023-03-26T16:09:25.856Z,93891.09
2023-03-26T16:11:56.770Z,93875.22
2023-03-26T16:14:39.294Z,93873.44
2023-03-26T16:17:13.018Z,93860.56
2023-03-26T16:19:52.955Z,93861.38
2023-03-26T16:22:47.360Z,93855.34
2023-03-26T16:25:29.481Z,93849.94
2023-03-26T16:28:32.396Z,93857.78
2023-03-26T16:31:37.830Z,93846.50
2023-03-26T16:34:29.643Z,93839.69
2023-03-26T16:37:00.294Z,93830.06
2023-03-26T16:39:41.500Z,93827.44
2023-03-26T16:42:37.011Z,93825.63
2023-03-26T16:45:18.903Z,93826.63
2023-03-26T16:47:56.097Z,93824.09
2023-03-26T16:50:33.498Z,93822.47
2023-03-26T16:53:13.411Z,93835.53
2023-03-26T16:55:48.250Z,93821.84
2023-03-26T16:58:27.958Z,93832.28
2023-03-26T17:01:08.640Z,93835.91
2023-03-26T17:03:50.860Z,93835.09
2023-03-26T17:06:56.828Z,93829.88
2023-03-26T17:09:33.925Z,93832.47
2023-03-26T17:12:09.364Z,93832.47
2023-03-26T17:14:49.140Z,93838.53
2023-03-26T17:17:47.435Z,93821.22
2023-03-26T17:20:26.573Z,93822.84
2023-03-26T17:23:06.799Z,93819.44
2023-03-26T17:25:38.363Z,93824.66
2023-03-26T17:28:23.476Z,93825.47
2023-03-26T17:31:05.475Z,93843.56
2023-03-26T17:33:36.686Z,93846.97
2023-03-26T17:36:28.990Z,93852.00
2023-03-26T17:39:21.556Z,93874.53
2023-03-26T17:42:13.390Z,93885.75
2023-03-26T17:44:45.620Z,93891.78
2023-03-26T17:47:38.226Z,93892.41
2023-03-26T17:50:14.650Z,93896.47
2023-03-26T17:52:50.384Z,93907.53
2023-03-26T17:55:21.296Z,93933.47
2023-03-26T17:57:51.527Z,93928.91
2023-03-26T18:00:23.518Z,93931.94
2023-03-26T18:02:57.210Z,93930.97
2023-03-26T18:05:29.227Z,93935.00
2023-03-26T18:08:33.107Z,93939.06
2023-03-26T18:11:43.373Z,93937.88
2023-03-26T18:14:47.246Z,93926.63
2023-03-26T18:17:16.885Z,93907.38
2023-03-26T18:19:49.424Z,93916.63
2023-03-26T18:22:21.090Z,93927.88
2023-03-26T18:24:49.325Z,93923.13
2023-03-26T18:27:20.095Z,93923.56
2023-03-26T18:30:03.014Z,93937.25
2023-03-26T18:32:33.717Z,93944.09
2023-03-26T18:35:04.438Z,93938.06
2023-03-26T18:37:34.203Z,93944.91
2023-03-26T18:40:11.212Z,93933.66
2023-03-26T18:42:40.831Z,93926.00
2023-03-26T18:45:17.358Z,93923.38
2023-03-26T18:47:50.055Z,93920.94
2023-03-26T18:50:23.016Z,93916.53
2023-03-26T18:52:51.112Z,93918.50
2023-03-26T18:55:18.845Z,93918.50
2023-03-26T18:57:51.472Z,93923.13
2023-03-26T19:00:23.151Z,93913.66
2023-03-26T19:02:59.907Z,93903.38
2023-03-26T19:05:28.577Z,93905.81
2023-03-26T19:07:57.099Z,93915.63
2023-03-26T19:10:25.144Z,93914.81
2023-03-26T19:12:57.356Z,93911.41
2023-03-26T19:15:27.472Z,93906.53
2023-03-26T19:18:03.768Z,93908.19
2023-03-26T19:20:38.870Z,93914.38
2023-03-26T19:23:08.687Z,93909.34
2023-03-26T19:25:41.463Z,93898.09
2023-03-26T19:28:17.870Z,93905.91
2023-03-26T19:30:45.560Z,93911.16
2023-03-26T19:33:18.622Z,93906.13
2023-03-26T19:35:51.702Z,93914.72
2023-03-26T19:38:25.540Z,93913.94
2023-03-26T19:40:55.618Z,93920.16
2023-03-26T19:43:24.069Z,93922.75
2023-03-26T19:46:00.544Z,93910.72
2023-03-26T19:48:46.247Z,93908.09
2023-03-26T19:51:21.016Z,93896.84
2023-03-26T19:53:52.949Z,93887.19
2023-03-26T19:56:21.895Z,93903.66
2023-03-26T19:58:49.923Z,93903.66
2023-03-26T20:01:19.527Z,93901.03
2023-03-26T20:03:51.691Z,93903.66
2023-03-26T20:06:30.656Z,93903.66
2023-03-26T20:09:02.177Z,93909.91
2023-03-26T20:11:34.315Z,93902.06
2023-03-26T20:14:02.446Z,93915.94
2023-03-26T20:16:32.029Z,93910.72
2023-03-26T20:19:04.098Z,93915.13
2023-03-26T20:21:34.580Z,93915.75
2023-03-26T20:24:02.903Z,93908.09
2023-03-26T20:26:30.530Z,93903.66
2023-03-26T20:28:58.309Z,93906.28
2023-03-26T20:31:26.756Z,93907.28
2023-03-26T20:33:56.461Z,93901.03
2023-03-26T20:36:34.426Z,93902.06
2023-03-26T20:39:05.487Z,93897.66
2023-03-26T20:41:33.866Z,93893.41
2023-03-26T20:44:03.631Z,93895.03
2023-03-26T20:46:31.944Z,93898.63
2023-03-26T20:49:00.073Z,93891.59
2023-03-26T20:51:29.231Z,93904.66
2023-03-26T20:53:57.117Z,93900.41
2023-03-26T20:56:24.931Z,93903.84
2023-03-26T20:59:09.617Z,93898.81
2023-03-26T21:01:38.952Z,93900.63
2023-03-26T21:04:07.086Z,93892.78
2023-03-26T21:06:36.169Z,93896.38
2023-03-26T21:09:04.505Z,93896.38
2023-03-26T21:11:46.031Z,93897.38
2023-03-26T21:14:20.760Z,93900.00
2023-03-26T21:16:49.193Z,93894.75
2023-03-26T21:19:17.460Z,93901.78
2023-03-26T21:22:13.699Z,93898.34
2023-03-26T21:24:50.591Z,93903.56
2023-03-26T21:27:26.867Z,93898.34
2023-03-26T21:29:55.472Z,93898.34
2023-03-26T21:32:24.176Z,93906.19
2023-03-26T21:34:58.807Z,93907.81
2023-03-26T21:37:29.074Z,93905.22
2023-03-26T21:39:57.237Z,93899.78
2023-03-26T21:42:26.853Z,93901.59
2023-03-26T21:44:55.095Z,93907.63
2023-03-26T21:47:23.185Z,93906.03
2023-03-26T21:49:52.281Z,93909.44
2023-03-26T21:52:22.485Z,93907.63
2023-03-26T21:54:52.341Z,93906.03
2023-03-26T21:57:35.348Z,93906.66
2023-03-26T22:00:14.290Z,93903.84
2023-03-26T22:02:51.049Z,93904.03
2023-03-26T22:05:20.858Z,93907.47
2023-03-26T22:07:55.184Z,93905.66
2023-03-26T22:11:25.629Z,93898.63
2023-03-26T22:37:49.050Z,93899.38
2023-03-26T22:40:29.095Z,93901.97
2023-03-26T22:46:18.615Z,93905.41
2023-03-26T22:49:13.060Z,93905.56
2023-03-26T22:54:49.720Z,93898.75
2023-03-26T22:57:32.961Z,93903.78
2023-03-26T23:03:34.817Z,93891.69
2023-03-26T23:10:39.298Z,93881.44
2023-03-26T23:13:31.491Z,93881.25
2023-03-26T23:19:27.346Z,93881.25
2023-03-26T23:21:54.946Z,93875.41
2023-03-26T23:24:22.526Z,93883.06
2023-03-26T23:26:51.302Z,93875.41
2023-03-26T23:29:20.423Z,93877.84
2023-03-26T23:31:48.428Z,93869.19
2023-03-26T23:34:16.909Z,93881.44
2023-03-26T23:36:44.744Z,93873.59
2023-03-26T23:39:12.398Z,93878.81
2023-03-26T23:41:40.217Z,93872.63
2023-03-26T23:44:07.829Z,93865.78
2023-03-26T23:46:36.809Z,93863.88
2023-03-26T23:49:04.430Z,93855.06
2023-03-26T23:51:32.768Z,93849.81
2023-03-26T23:54:01.490Z,93859.66
2023-03-26T23:56:29.798Z,93868.28
2023-03-26T23:58:58.147Z,93872.88
